Mustoe, Virginia
Current Conditions -  °F | °C
As of 3:35 AM on Sunday 26 Oct 2014 (Local Time) from KHSP Reporting Station
Overcast Overcast  
Wind Chill: 54°   Ceiling: 2900
Heat Index: 54°   Visibility: 10mi
Dew Point: 43°   Wind: 17mph
Humidity: 67%   Direction: 300°WNW
Pressure: 29.81"   Gusts: 29mph
Location:  38.32°N, 79.64°W
Report Text: KHSP 260735Z AUTO 30015G25KT 10SM BKN029 OVC035 12/06 A2981 RMK AO2 T01210062
Loading
Personal Weather Stations






























Interactive Weather Map
Tropical Storm Tracking
New forecast layout! Learn more

10-Day Weather Forecast

Advertisements
Track Severe Weather on mobile